This is the latest recevied weather packets stored in our database for station/object VK2KGV-15. If no packets are shown the sender has not sent any weather packets the latest 10 day(s).
| Time | Temp. | Humidity | Pressure | Rain* | Wind** | Luminosity | Snow |
|---|---|---|---|---|---|---|---|
| 1777755416 | 15.56° C | 71% | 1021.6 hPa | 0 mm | - | - | - |
| 1777754210 | 15° C | 72% | 1021.5 hPa | 0 mm | - | - | - |
| 1777753003 | 14.44° C | 73% | 1021.4 hPa | 0 mm | - | - | - |
| 1777752400 | 14.44° C | 73% | 1021.3 hPa | 0 mm | - | - | - |
| 1777748179 | 13.33° C | 77% | 1021.3 hPa | 0 mm | - | - | - |
| 1777745163 | 13.89° C | 77% | 1021.1 hPa | 0 mm | - | - | - |
| 1777740941 | 13.89° C | 79% | 1021.6 hPa | 0 mm | - | - | - |
| 1777736116 | 13.89° C | 77% | 1021.9 hPa | 0 mm | - | - | - |
| 1777735514 | 13.89° C | 77% | 1022 hPa | 0 mm | - | - | - |
| 1777734910 | 13.89° C | 77% | 1021.9 hPa | 0 mm | - | - | - |
| 1777733704 | 13.89° C | 76% | 1022.1 hPa | 0 mm | - | - | - |
| 1777732498 | 13.89° C | 74% | 1022.3 hPa | 0 mm | - | - | - |
| 1777731291 | 15° C | 72% | 1022.3 hPa | 0 mm | - | - | - |
| 1777730085 | 15.56° C | 71% | 1022.3 hPa | 0 mm | - | - | - |
| 1777728879 | 15.56° C | 71% | 1022.3 hPa | 0 mm | - | - | - |
| 1777727673 | 16.11° C | 71% | 1022.4 hPa | 0 mm | - | - | - |
| 1777726467 | 16.11° C | 70% | 1022.3 hPa | 0 mm | - | - | - |
| 1777724054 | 16.67° C | 71% | 1022.1 hPa | 0 mm | - | - | - |
| 1777723451 | 16.67° C | 71% | 1022.4 hPa | 0 mm | - | - | - |
| 1777721642 | 16.67° C | 70% | 1022.5 hPa | 0 mm | - | - | - |
| 1777721039 | 16.67° C | 70% | 1022.5 hPa | 0 mm | - | - | - |
| 1777720436 | 16.67° C | 70% | 1022.6 hPa | 0 mm | - | - | - |
| 1777716817 | 17.78° C | 65% | 1022.6 hPa | 0 mm | - | - | - |
| 1777715008 | 17.78° C | 61% | 1022.3 hPa | 0 mm | - | - | - |
| 1777714404 | 18.33° C | 60% | 1022.4 hPa | 0 mm | - | - | - |
* Rain since midnight (hover to see other rain measurements)
** Current wind speed in m/s (hover to see current wind gust speed)